createdAt,value
2023-01-05T00:01:03.678Z,69.19
2023-01-05T00:04:11.447Z,69.08
2023-01-05T00:07:17.217Z,69.06
2023-01-05T00:10:41.077Z,69.27
2023-01-05T00:14:04.783Z,69.33
2023-01-05T00:17:29.464Z,69.16
2023-01-05T00:20:54.023Z,69.41
2023-01-05T00:23:59.973Z,69.43
2023-01-05T00:27:05.699Z,69.34
2023-01-05T00:30:11.253Z,69.77
2023-01-05T00:33:18.085Z,69.87
2023-01-05T00:36:26.603Z,70.03
2023-01-05T00:39:33.065Z,70.01
2023-01-05T00:42:39.268Z,69.85
2023-01-05T00:45:45.193Z,70.17
2023-01-05T00:48:52.424Z,69.87
2023-01-05T00:51:58.848Z,69.36
2023-01-05T00:55:04.097Z,69.63
2023-01-05T00:58:09.642Z,69.58
2023-01-05T01:01:15.531Z,70.06
2023-01-05T01:04:22.115Z,70.19
2023-01-05T01:07:28.519Z,69.96
2023-01-05T01:10:36.651Z,69.69
2023-01-05T01:13:42.775Z,70.22
2023-01-05T01:16:48.390Z,70.39
2023-01-05T01:19:54.560Z,70.34
2023-01-05T01:23:00.813Z,70.68
2023-01-05T01:26:06.440Z,70.90
2023-01-05T01:29:14.067Z,71.08
2023-01-05T01:32:21.982Z,71.27
2023-01-05T01:35:27.694Z,71.38
2023-01-05T01:38:33.142Z,71.48
2023-01-05T01:41:39.018Z,71.81
2023-01-05T01:45:15.931Z,71.85
2023-01-05T01:48:24.032Z,72.00
2023-01-05T01:51:42.804Z,71.87
2023-01-05T01:54:48.340Z,71.81
2023-01-05T01:57:55.609Z,72.09
2023-01-05T02:01:01.379Z,72.23
2023-01-05T02:04:07.950Z,72.31
2023-01-05T02:07:14.116Z,73.23
2023-01-05T02:10:19.436Z,73.72
2023-01-05T02:13:51.740Z,73.80
2023-01-05T02:17:24.092Z,74.48
2023-01-05T02:20:43.813Z,74.65
2023-01-05T02:24:23.080Z,74.66
2023-01-05T02:27:54.536Z,74.58
2023-01-05T02:31:29.124Z,74.60
2023-01-05T02:34:55.213Z,74.39
2023-01-05T02:38:12.670Z,74.17
2023-01-05T02:41:28.438Z,74.20
2023-01-05T02:44:33.790Z,74.36
2023-01-05T02:47:52.845Z,74.68
2023-01-05T02:51:08.245Z,74.65
2023-01-05T02:54:36.083Z,74.24
2023-01-05T02:57:54.471Z,74.59
2023-01-05T03:01:03.974Z,74.34
2023-01-05T03:04:21.665Z,74.84
2023-01-05T03:07:35.116Z,74.72
2023-01-05T03:11:00.350Z,74.75
2023-01-05T03:14:28.140Z,75.56
2023-01-05T03:17:41.891Z,75.82
2023-01-05T03:20:49.121Z,76.19
2023-01-05T03:24:12.917Z,76.23
2023-01-05T03:27:37.799Z,76.49
2023-01-05T03:31:09.850Z,76.81
2023-01-05T03:34:48.506Z,76.87
2023-01-05T03:38:17.881Z,76.93
2023-01-05T03:41:20.632Z,76.43
2023-01-05T03:44:28.455Z,76.85
2023-01-05T03:47:34.229Z,76.89
2023-01-05T03:50:39.881Z,76.67
2023-01-05T03:53:46.451Z,76.96
2023-01-05T03:56:52.761Z,77.06
2023-01-05T03:59:59.969Z,77.17
2023-01-05T04:03:07.177Z,76.84
2023-01-05T04:06:12.616Z,77.04
2023-01-05T04:09:19.249Z,77.77
2023-01-05T04:12:25.270Z,78.02
2023-01-05T04:15:30.963Z,77.86
2023-01-05T04:18:37.105Z,77.31
2023-01-05T04:21:42.891Z,77.36
2023-01-05T04:24:49.738Z,77.65
2023-01-05T04:27:56.394Z,78.04
2023-01-05T04:31:07.656Z,78.31
2023-01-05T04:34:15.766Z,78.37
2023-01-05T04:37:22.388Z,78.37
2023-01-05T04:40:28.350Z,78.74
2023-01-05T04:43:34.240Z,78.69
2023-01-05T04:46:40.764Z,79.31
2023-01-05T04:49:45.720Z,80.37
2023-01-05T04:52:52.223Z,80.69
2023-01-05T04:56:01.372Z,80.56
2023-01-05T04:59:09.006Z,80.50
2023-01-05T05:02:15.911Z,80.59
2023-01-05T05:05:21.649Z,80.69
2023-01-05T05:08:28.507Z,81.04
2023-01-05T05:11:35.494Z,80.43
2023-01-05T05:14:41.660Z,80.66
2023-01-05T05:17:47.715Z,81.05
2023-01-05T05:20:57.013Z,80.75
2023-01-05T05:24:04.594Z,80.69
2023-01-05T05:27:12.926Z,80.81
2023-01-05T05:30:20.958Z,80.85
2023-01-05T05:33:26.156Z,81.03
2023-01-05T05:36:32.748Z,80.79
2023-01-05T05:39:39.395Z,80.29
2023-01-05T05:42:45.348Z,79.60
2023-01-05T05:45:51.204Z,79.75
2023-01-05T05:48:56.693Z,79.40
2023-01-05T05:52:02.697Z,79.55
2023-01-05T05:55:08.690Z,79.65
2023-01-05T05:58:14.625Z,79.54
2023-01-05T06:01:21.130Z,79.25
2023-01-05T06:04:26.371Z,79.07
2023-01-05T06:07:32.790Z,78.89
2023-01-05T06:10:39.182Z,78.62
2023-01-05T06:13:44.245Z,78.68
2023-01-05T06:16:49.849Z,79.02
2023-01-05T06:19:55.898Z,79.29
2023-01-05T06:23:02.732Z,79.19
2023-01-05T06:26:08.212Z,79.47
2023-01-05T06:29:13.738Z,79.02
2023-01-05T06:32:19.194Z,78.73
2023-01-05T06:35:24.250Z,78.50
2023-01-05T06:38:31.774Z,78.49
2023-01-05T06:41:37.256Z,78.43
2023-01-05T06:44:52.081Z,77.83
2023-01-05T06:48:01.830Z,78.00
2023-01-05T06:51:17.455Z,77.93
2023-01-05T06:54:31.179Z,78.02
2023-01-05T06:58:01.036Z,77.43
2023-01-05T07:00:58.337Z,76.84
2023-01-05T07:04:04.855Z,76.84
2023-01-05T07:10:13.917Z,76.82
2023-01-05T07:13:23.323Z,76.68
2023-01-05T07:16:28.380Z,76.29
2023-01-05T07:19:33.370Z,76.01
2023-01-05T07:22:42.680Z,75.74
2023-01-05T07:25:53.220Z,75.77
2023-01-05T07:28:58.970Z,76.01
2023-01-05T07:32:04.737Z,75.91
2023-01-05T07:35:09.491Z,76.41
2023-01-05T07:38:15.551Z,75.80
2023-01-05T07:43:46.941Z,75.66
2023-01-05T07:46:52.766Z,75.76
2023-01-05T07:49:58.331Z,75.93
2023-01-05T07:55:30.760Z,76.28
2023-01-05T07:58:36.763Z,76.02
2023-01-05T08:04:08.127Z,75.88
2023-01-05T08:07:17.973Z,75.80
2023-01-05T08:10:36.559Z,76.10
2023-01-05T08:14:00.501Z,76.26
2023-01-05T08:17:06.867Z,76.45
2023-01-05T08:20:12.457Z,76.44
2023-01-05T08:23:25.841Z,76.23
2023-01-05T08:26:30.278Z,75.98
2023-01-05T08:29:35.415Z,75.83
2023-01-05T08:32:40.982Z,75.76
2023-01-05T08:35:46.894Z,76.01
2023-01-05T08:38:58.184Z,76.22
2023-01-05T08:42:03.521Z,76.40
2023-01-05T08:45:08.544Z,76.30
2023-01-05T08:48:13.577Z,76.61
2023-01-05T08:51:19.335Z,76.76
2023-01-05T08:54:24.954Z,76.88
2023-01-05T08:57:30.287Z,77.47
2023-01-05T09:00:36.392Z,77.50
2023-01-05T09:06:10.599Z,77.68
2023-01-05T09:09:16.915Z,78.15
2023-01-05T09:12:22.379Z,78.77
2023-01-05T09:15:28.864Z,79.08
2023-01-05T09:18:19.784Z,78.71
2023-01-05T09:23:55.112Z,79.10
2023-01-05T09:27:00.688Z,79.19
2023-01-05T09:32:33.381Z,79.24
2023-01-05T09:35:38.588Z,79.46
2023-01-05T09:38:47.264Z,79.49
2023-01-05T09:42:01.092Z,80.05
2023-01-05T09:45:09.075Z,80.59
2023-01-05T09:48:14.779Z,80.91
2023-01-05T09:51:19.973Z,80.76
2023-01-05T09:54:31.648Z,81.18
2023-01-05T10:00:11.002Z,81.40
2023-01-05T10:06:03.620Z,81.78
2023-01-05T10:09:08.951Z,81.83
2023-01-05T10:12:53.124Z,81.74
2023-01-05T10:16:04.191Z,82.49
2023-01-05T10:19:09.962Z,83.15
2023-01-05T10:22:42.418Z,83.23
2023-01-05T10:25:58.396Z,83.31
2023-01-05T10:29:13.416Z,83.82
2023-01-05T10:35:41.718Z,84.76
2023-01-05T10:41:29.399Z,85.45
2023-01-05T10:45:09.874Z,85.68
2023-01-05T10:50:56.836Z,86.34
2023-01-05T10:56:36.116Z,87.52
2023-01-05T10:59:41.592Z,88.32
2023-01-05T11:02:50.095Z,88.25
2023-01-05T11:06:01.979Z,88.61
2023-01-05T11:09:07.096Z,88.92
2023-01-05T11:12:15.770Z,88.55
2023-01-05T11:17:47.336Z,88.84
2023-01-05T11:23:20.069Z,88.85
2023-01-05T11:28:53.493Z,89.37
2023-01-05T11:34:41.039Z,89.96
2023-01-05T11:37:47.777Z,89.88
2023-01-05T11:40:52.977Z,89.75
2023-01-05T11:43:58.103Z,89.67
2023-01-05T11:47:04.681Z,90.17
2023-01-05T11:50:25.089Z,90.13
2023-01-05T11:53:49.620Z,90.50
2023-01-05T11:56:55.317Z,90.36
2023-01-05T12:00:03.087Z,90.46
2023-01-05T12:03:32.095Z,90.87
2023-01-05T12:07:23.544Z,90.42
2023-01-05T12:10:54.745Z,90.42
2023-01-05T12:14:31.985Z,90.21
2023-01-05T12:17:59.955Z,90.67
2023-01-05T12:21:32.468Z,90.73
2023-01-05T12:34:46.807Z,91.19
2023-01-05T12:38:32.699Z,91.05
2023-01-05T12:42:07.818Z,91.13
2023-01-05T12:45:35.369Z,91.65
2023-01-05T12:48:50.332Z,92.00
2023-01-05T12:52:06.571Z,92.56
2023-01-05T12:55:23.685Z,92.74
2023-01-05T12:58:36.447Z,92.49
2023-01-05T13:01:44.752Z,92.83
2023-01-05T13:05:11.566Z,92.60
2023-01-05T13:08:27.639Z,92.96
2023-01-05T13:11:52.564Z,92.97
2023-01-05T13:15:03.016Z,94.05
2023-01-05T13:18:09.637Z,94.62
2023-01-05T13:21:18.274Z,94.72
2023-01-05T13:24:35.007Z,94.99
2023-01-05T13:27:40.810Z,94.95
2023-01-05T13:30:50.064Z,95.10
2023-01-05T13:34:15.442Z,95.67
2023-01-05T13:37:58.198Z,95.91
2023-01-05T13:41:23.711Z,95.16
2023-01-05T13:44:48.095Z,94.91
2023-01-05T13:48:44.055Z,94.64
2023-01-05T13:52:06.874Z,94.64
2023-01-05T13:55:25.043Z,94.83
2023-01-05T13:58:54.294Z,95.15
2023-01-05T14:01:59.739Z,94.12
2023-01-05T14:05:06.052Z,93.13
2023-01-05T14:08:11.572Z,92.36
2023-01-05T14:11:35.632Z,91.93
2023-01-05T14:14:42.778Z,91.89
2023-01-05T14:18:12.320Z,92.35
2023-01-05T14:21:27.749Z,92.31
2023-01-05T14:24:56.729Z,92.77
2023-01-05T14:28:44.729Z,93.02
2023-01-05T14:31:53.980Z,92.16
2023-01-05T14:35:41.755Z,92.34
2023-01-05T14:38:47.729Z,91.45
2023-01-05T14:41:53.775Z,90.75
2023-01-05T14:45:21.437Z,90.98
2023-01-05T14:48:36.092Z,91.42
2023-01-05T14:51:46.251Z,91.40
2023-01-05T14:55:00.652Z,91.46
2023-01-05T14:58:06.278Z,91.72
2023-01-05T15:04:34.977Z,91.76
2023-01-05T15:08:22.585Z,92.00
2023-01-05T15:11:38.844Z,92.38
2023-01-05T15:15:07.618Z,92.99
2023-01-05T15:18:32.990Z,92.78
2023-01-05T15:22:13.375Z,92.96
2023-01-05T15:25:46.030Z,93.00
2023-01-05T15:29:07.590Z,93.32
2023-01-05T15:32:22.787Z,93.70
2023-01-05T15:35:38.977Z,93.55
2023-01-05T15:38:45.208Z,92.82
2023-01-05T15:41:51.139Z,93.02
2023-01-05T15:45:00.432Z,92.75
2023-01-05T15:48:09.129Z,92.19
2023-01-05T15:51:14.738Z,92.48
2023-01-05T15:54:20.829Z,92.79
2023-01-05T15:57:35.199Z,92.58
2023-01-05T16:00:44.663Z,93.23
2023-01-05T16:03:51.407Z,92.71
2023-01-05T16:07:12.752Z,92.98
2023-01-05T16:12:44.669Z,93.23
2023-01-05T16:20:48.972Z,93.31
2023-01-05T16:26:21.297Z,93.42
2023-01-05T16:31:53.523Z,93.12
2023-01-05T16:37:32.849Z,93.64
2023-01-05T16:40:40.739Z,93.91
2023-01-05T16:43:37.567Z,94.66
2023-01-05T16:46:54.654Z,95.59
2023-01-05T16:55:02.980Z,95.68
2023-01-05T16:58:08.702Z,96.21
2023-01-05T17:03:46.395Z,96.05
2023-01-05T17:09:19.856Z,96.09
2023-01-05T17:15:07.247Z,95.51
2023-01-05T17:18:15.171Z,95.27
2023-01-05T17:21:20.763Z,95.33
2023-01-05T17:24:28.257Z,95.64
2023-01-05T17:29:59.394Z,96.85
2023-01-05T17:35:33.213Z,99.02
2023-01-05T17:43:35.949Z,99.49
2023-01-05T17:49:07.787Z,98.67
2023-01-05T17:54:42.017Z,97.37
2023-01-05T18:00:19.484Z,97.62
2023-01-05T18:05:53.415Z,98.19
2023-01-05T18:11:27.654Z,97.40
2023-01-05T18:16:59.595Z,97.33
2023-01-05T18:22:31.744Z,96.84
2023-01-05T18:28:04.930Z,96.65
2023-01-05T18:33:38.886Z,96.42
2023-01-05T18:39:11.385Z,95.15
2023-01-05T18:42:17.080Z,94.36
2023-01-05T18:47:49.683Z,94.11
2023-01-05T18:50:58.551Z,94.76
2023-01-05T18:56:30.332Z,94.87
2023-01-05T19:04:33.283Z,93.98
2023-01-05T19:10:04.928Z,92.32
2023-01-05T19:15:40.362Z,92.75
2023-01-05T19:21:13.151Z,91.91
2023-01-05T19:26:46.886Z,92.35
2023-01-05T19:29:52.053Z,92.44
2023-01-05T19:32:50.707Z,91.87
2023-01-05T19:35:55.541Z,92.07
2023-01-05T19:39:02.189Z,92.37
2023-01-05T19:44:35.924Z,93.62
2023-01-05T19:47:43.153Z,93.74
2023-01-05T19:53:14.085Z,93.59
2023-01-05T19:58:49.623Z,92.99
2023-01-05T20:04:23.724Z,92.92
2023-01-05T20:09:58.386Z,93.15
2023-01-05T20:15:34.428Z,93.12
2023-01-05T20:21:09.536Z,94.45
2023-01-05T20:29:14.077Z,95.41
2023-01-05T20:32:24.192Z,94.48
2023-01-05T20:35:29.602Z,93.79
2023-01-05T20:38:34.791Z,94.75
2023-01-05T20:41:44.168Z,94.89
2023-01-05T20:44:51.535Z,94.70
2023-01-05T20:50:23.764Z,93.73
2023-01-05T20:55:59.468Z,93.63
2023-01-05T21:04:04.700Z,94.41
2023-01-05T21:07:10.007Z,94.27
2023-01-05T21:12:41.927Z,94.58
2023-01-05T21:18:15.157Z,93.75
2023-01-05T21:23:49.486Z,94.13
2023-01-05T21:29:21.545Z,94.13
2023-01-05T21:34:55.568Z,93.71
2023-01-05T21:40:30.517Z,94.45
2023-01-05T21:46:03.088Z,93.57
2023-01-05T21:51:54.513Z,93.11
2023-01-05T21:55:18.475Z,93.15
2023-01-05T21:58:07.531Z,93.49
2023-01-05T22:03:41.953Z,93.29
2023-01-05T22:09:13.675Z,93.32
2023-01-05T22:12:20.354Z,92.63
2023-01-05T22:17:51.920Z,91.02
2023-01-05T22:23:27.211Z,91.39
2023-01-05T22:29:03.275Z,91.48
2023-01-05T22:34:36.761Z,91.09
2023-01-05T22:37:42.230Z,91.67
2023-01-05T22:40:47.962Z,90.96
2023-01-05T22:43:54.522Z,90.41
2023-01-05T22:47:00.139Z,90.82
2023-01-05T22:50:05.563Z,90.93
2023-01-05T22:53:11.272Z,91.06
2023-01-05T22:56:17.107Z,91.64
2023-01-05T22:59:22.775Z,91.14
2023-01-05T23:02:29.293Z,91.05
2023-01-05T23:05:35.198Z,91.09
2023-01-05T23:08:41.804Z,90.62
2023-01-05T23:11:49.705Z,90.66
2023-01-05T23:14:56.425Z,90.81
2023-01-05T23:18:02.121Z,90.61
2023-01-05T23:21:13.295Z,90.47
2023-01-05T23:24:19.394Z,90.65
2023-01-05T23:27:25.177Z,90.43
2023-01-05T23:30:30.881Z,90.23
2023-01-05T23:33:38.550Z,90.75
2023-01-05T23:36:44.775Z,91.03
2023-01-05T23:39:50.433Z,90.80
2023-01-05T23:42:57.655Z,90.37
2023-01-05T23:46:03.063Z,89.82
2023-01-05T23:49:08.512Z,89.86
2023-01-05T23:52:14.524Z,89.70
2023-01-05T23:55:21.151Z,89.16
2023-01-05T23:58:26.854Z,88.82
